Time;durP1;ratioP1;P1;durP2;ratioP2;P2;SDS_P1;SDS_P2;PMS_P1;PMS_P2;Temp;Humidity;BMP_temperature;BMP_pressure;BME280_temperature;BME280_humidity;BME280_pressure;Samples;Min_cycle;Max_cycle;Signal;HPM_P1;HPM_P2
2021/05/04 00:02:16;;;;;;;2.00;1.73;;;3.60;99.90;;;;;;6248534;28;20314;-72
2021/05/04 00:05:18;;;;;;;1.60;1.50;;;3.60;99.90;;;;;;6232388;28;20584;-72
2021/05/04 00:08:20;;;;;;;2.30;2.00;;;3.60;99.90;;;;;;6233137;28;20336;-72
2021/05/04 00:11:22;;;;;;;4.47;1.60;;;3.60;99.90;;;;;;6231194;28;20702;-72
2021/05/04 00:14:24;;;;;;;1.87;1.70;;;3.60;99.90;;;;;;6233015;28;20696;-72
2021/05/04 00:17:26;;;;;;;2.17;1.80;;;3.60;99.90;;;;;;6232709;28;20760;-72
2021/05/04 00:20:28;;;;;;;1.80;1.70;;;3.60;99.90;;;;;;6232647;28;20223;-72
2021/05/04 00:23:29;;;;;;;1.53;1.43;;;3.60;99.90;;;;;;6233570;28;20229;-72
2021/05/04 00:26:32;;;;;;;1.70;1.60;;;3.60;99.90;;;;;;6214691;28;20727;-72
2021/05/04 00:29:34;;;;;;;1.77;1.67;;;3.60;99.90;;;;;;6233469;28;20228;-72
2021/05/04 00:32:36;;;;;;;2.67;1.97;;;3.60;99.90;;;;;;6232236;28;20291;-72
2021/05/04 00:35:38;;;;;;;2.03;1.90;;;3.60;99.90;;;;;;6233821;28;20858;-72
2021/05/04 00:38:40;;;;;;;2.47;2.20;;;3.60;99.90;;;;;;6233251;28;20230;-72
2021/05/04 00:41:41;;;;;;;3.10;2.30;;;3.50;99.90;;;;;;6233119;28;20281;-72
2021/05/04 00:44:43;;;;;;;2.47;2.00;;;3.50;99.90;;;;;;6214733;28;20253;-72
2021/05/04 00:47:45;;;;;;;2.63;2.10;;;3.50;99.90;;;;;;6230693;28;20246;-72
2021/05/04 00:50:47;;;;;;;2.40;2.20;;;3.40;99.90;;;;;;6231980;28;20597;-72
2021/05/04 00:53:49;;;;;;;2.20;1.90;;;3.40;99.90;;;;;;6232162;28;20666;-72
2021/05/04 00:56:55;;;;;;;2.30;2.10;;;3.50;99.90;;;;;;6231242;28;20688;-72
2021/05/04 00:59:59;;;;;;;2.67;2.20;;;3.40;99.90;;;;;;6232018;28;20281;-72
2021/05/04 01:03:03;;;;;;;2.50;2.10;;;3.40;99.90;;;;;;6231511;28;20662;-72
2021/05/04 01:06:04;;;;;;;3.30;2.70;;;3.40;99.90;;;;;;6236716;28;20743;-72
2021/05/04 01:09:06;;;;;;;2.53;2.30;;;3.40;99.90;;;;;;6231387;28;20233;-72
2021/05/04 01:12:08;;;;;;;2.80;2.17;;;3.40;99.90;;;;;;6231565;28;20208;-72
2021/05/04 01:15:10;;;;;;;3.50;2.83;;;3.30;99.90;;;;;;6234849;28;20215;-72
2021/05/04 01:18:12;;;;;;;2.90;2.60;;;3.30;99.90;;;;;;6230764;28;20738;-72
2021/05/04 01:21:14;;;;;;;3.33;3.03;;;3.30;99.90;;;;;;6233122;28;20212;-72
2021/05/04 01:24:17;;;;;;;4.20;2.77;;;3.30;99.90;;;;;;6228277;28;20733;-72
2021/05/04 01:27:18;;;;;;;3.03;2.80;;;3.30;99.90;;;;;;6234431;28;20256;-72
2021/05/04 01:30:21;;;;;;;3.23;2.93;;;3.30;99.90;;;;;;6233757;28;20290;-72
2021/05/04 01:33:23;;;;;;;3.17;2.80;;;3.30;99.90;;;;;;6235140;28;20685;-72
2021/05/04 01:36:25;;;;;;;3.13;2.80;;;3.30;99.90;;;;;;6233857;28;20289;-72
2021/05/04 01:39:49;;;;;;;2.83;2.63;;;3.30;99.90;;;;;;6235759;28;20306;-72
2021/05/04 01:42:51;;;;;;;3.20;2.87;;;3.30;99.90;;;;;;6234529;28;20324;-72
2021/05/04 01:45:53;;;;;;;2.73;2.53;;;3.30;99.90;;;;;;6233925;28;20682;-72
2021/05/04 01:48:54;;;;;;;3.43;2.70;;;3.30;99.90;;;;;;6237529;28;20305;-72
2021/05/04 01:51:56;;;;;;;2.70;2.50;;;3.20;99.90;;;;;;6261176;28;20704;-72
2021/05/04 01:54:59;;;;;;;3.97;2.80;;;3.30;99.90;;;;;;6260753;28;20254;-72
2021/05/04 01:58:01;;;;;;;5.23;3.40;;;3.20;99.90;;;;;;6259563;28;20227;-72
2021/05/04 02:01:03;;;;;;;3.57;3.27;;;3.20;99.90;;;;;;6260923;28;20663;-72
2021/05/04 02:04:05;;;;;;;3.73;2.90;;;3.20;99.90;;;;;;6258013;28;20312;-72
2021/05/04 02:07:07;;;;;;;3.30;3.00;;;3.20;99.90;;;;;;6260818;28;20267;-72
2021/05/04 02:10:11;;;;;;;3.90;3.23;;;3.20;99.90;;;;;;6245820;28;20231;-71
2021/05/04 02:13:13;;;;;;;4.43;2.83;;;3.20;99.90;;;;;;6234814;28;20238;-71
2021/05/04 02:16:15;;;;;;;3.77;3.00;;;3.10;99.90;;;;;;6240240;28;20227;-71
2021/05/04 02:19:17;;;;;;;3.53;3.23;;;3.10;99.90;;;;;;6238235;28;20318;-72
2021/05/04 02:22:19;;;;;;;3.63;3.33;;;3.10;99.90;;;;;;6260065;28;20605;-72
2021/05/04 02:25:21;;;;;;;5.03;3.27;;;3.10;99.90;;;;;;6257398;28;20373;-72
2021/05/04 02:28:23;;;;;;;3.43;3.13;;;3.10;99.90;;;;;;6259711;28;20609;-72
2021/05/04 02:31:25;;;;;;;6.20;3.77;;;3.10;99.90;;;;;;6257984;28;20235;-72
2021/05/04 02:34:27;;;;;;;3.87;3.40;;;3.10;99.90;;;;;;6258692;28;20401;-72
2021/05/04 02:37:29;;;;;;;3.63;3.33;;;3.10;99.90;;;;;;6253774;28;20216;-72
2021/05/04 02:40:30;;;;;;;4.00;3.30;;;3.10;99.90;;;;;;6235444;28;20322;-72
2021/05/04 02:43:33;;;;;;;3.67;3.37;;;3.10;99.90;;;;;;6233385;28;20326;-72
2021/05/04 02:46:35;;;;;;;4.10;3.73;;;3.00;99.90;;;;;;6250549;28;20373;-72
2021/05/04 02:49:37;;;;;;;3.60;3.30;;;3.00;99.90;;;;;;6234365;28;20719;-72
2021/05/04 02:52:39;;;;;;;4.40;3.80;;;3.00;99.90;;;;;;6233815;28;20255;-72
2021/05/04 02:55:41;;;;;;;3.93;3.53;;;3.00;99.90;;;;;;6234948;28;20223;-72
2021/05/04 02:58:42;;;;;;;5.93;3.43;;;3.00;99.90;;;;;;6234585;28;20527;-72
2021/05/04 03:01:44;;;;;;;4.57;4.17;;;3.00;99.90;;;;;;6234944;28;20630;-72
2021/05/04 03:04:46;;;;;;;4.63;3.80;;;3.00;99.90;;;;;;6234210;28;20228;-71
2021/05/04 03:07:48;;;;;;;4.43;3.80;;;3.00;99.90;;;;;;6232623;28;20231;-71
2021/05/04 03:10:50;;;;;;;4.40;4.00;;;3.00;99.90;;;;;;6212533;28;20244;-72
2021/05/04 03:13:53;;;;;;;4.97;4.33;;;3.00;99.90;;;;;;6208578;28;20267;-72
2021/05/04 03:16:55;;;;;;;4.20;3.80;;;3.00;99.90;;;;;;6233600;28;20581;-71
2021/05/04 03:19:57;;;;;;;3.93;3.57;;;3.00;99.90;;;;;;6246468;28;20227;-71
2021/05/04 03:22:59;;;;;;;6.57;5.00;;;3.00;99.90;;;;;;6259420;28;20314;-71
2021/05/04 03:26:01;;;;;;;4.83;4.20;;;3.00;99.90;;;;;;6246207;28;20322;-72
2021/05/04 03:29:04;;;;;;;5.00;4.50;;;3.00;99.90;;;;;;6233439;28;20227;-72
2021/05/04 03:32:06;;;;;;;4.47;4.07;;;3.00;99.90;;;;;;6232083;28;20310;-72
2021/05/04 03:35:11;;;;;;;4.80;4.30;;;3.00;99.90;;;;;;6247806;28;20600;-72
2021/05/04 03:38:13;;;;;;;5.73;4.90;;;3.00;99.90;;;;;;6234395;28;20285;-72
2021/05/04 03:41:15;;;;;;;6.17;5.00;;;3.10;99.90;;;;;;6232006;28;20220;-72
2021/05/04 03:44:17;;;;;;;5.73;4.83;;;3.10;99.90;;;;;;6230107;28;20232;-72
2021/05/04 03:47:19;;;;;;;5.43;4.83;;;3.10;99.90;;;;;;6215566;28;20322;-71
2021/05/04 03:50:24;;;;;;;6.07;5.13;;;3.10;99.90;;;;;;6246720;28;20231;-71
2021/05/04 03:53:26;;;;;;;5.93;4.90;;;3.10;99.90;;;;;;6258477;28;20311;-71
2021/05/04 03:56:28;;;;;;;6.27;4.60;;;3.20;99.90;;;;;;6257345;28;20222;-71
2021/05/04 03:59:29;;;;;;;5.23;4.60;;;3.20;99.90;;;;;;6250482;28;20377;-72
2021/05/04 04:02:31;;;;;;;6.67;5.10;;;3.20;99.90;;;;;;6248704;28;20694;-72
2021/05/04 04:05:33;;;;;;;5.30;4.77;;;3.20;99.90;;;;;;6231142;28;20297;-72
2021/05/04 04:08:35;;;;;;;5.87;5.07;;;3.20;99.90;;;;;;6229618;28;20323;-72
2021/05/04 04:11:37;;;;;;;4.73;4.23;;;3.20;99.90;;;;;;6237068;28;20739;-72
2021/05/04 04:14:39;;;;;;;6.10;5.20;;;3.20;99.90;;;;;;6237503;28;20212;-72
2021/05/04 04:17:41;;;;;;;6.33;5.43;;;3.30;99.90;;;;;;6237866;28;20630;-72
2021/05/04 04:20:43;;;;;;;6.20;5.20;;;3.30;99.90;;;;;;6252623;28;20327;-72
2021/05/04 04:23:45;;;;;;;5.70;5.13;;;3.20;99.90;;;;;;6257575;28;20314;-72
2021/05/04 04:26:47;;;;;;;6.53;4.90;;;3.30;99.90;;;;;;6256754;28;20291;-72
2021/05/04 04:29:49;;;;;;;5.77;5.20;;;3.30;99.90;;;;;;6243133;28;20243;-72
2021/05/04 04:32:52;;;;;;;5.53;4.93;;;3.40;99.90;;;;;;6261816;28;20361;-72
2021/05/04 04:35:54;;;;;;;5.47;4.90;;;3.40;99.90;;;;;;6243579;28;20767;-72
2021/05/04 04:38:56;;;;;;;4.83;4.33;;;3.40;99.90;;;;;;6262479;28;20215;-72
2021/05/04 04:42:08;;;;;;;5.43;4.73;;;3.40;99.90;;;;;;6255379;28;20239;-72
2021/05/04 04:45:11;;;;;;;5.00;4.50;;;3.50;99.90;;;;;;6254645;28;20281;-72
2021/05/04 04:48:14;;;;;;;5.70;4.97;;;3.50;99.90;;;;;;6254465;28;20223;-72
2021/05/04 04:51:16;;;;;;;5.47;4.90;;;3.50;99.90;;;;;;6256943;28;20211;-72
2021/05/04 04:54:18;;;;;;;5.40;4.90;;;3.60;99.90;;;;;;6256029;28;20293;-72
2021/05/04 04:57:20;;;;;;;5.27;4.77;;;3.60;99.90;;;;;;6258545;28;20720;-72
2021/05/04 05:00:22;;;;;;;5.97;4.57;;;3.70;99.90;;;;;;6257895;28;20684;-72
2021/05/04 05:03:24;;;;;;;5.33;4.47;;;3.70;99.90;;;;;;6261050;28;20749;-72
2021/05/04 05:06:27;;;;;;;6.00;4.77;;;3.70;99.90;;;;;;6260168;28;20227;-72
2021/05/04 05:09:28;;;;;;;5.13;4.50;;;3.80;99.90;;;;;;6252196;28;20233;-72
2021/05/04 05:12:30;;;;;;;6.03;4.80;;;3.80;99.90;;;;;;6236446;28;20306;-72
2021/05/04 05:15:37;;;;;;;5.03;4.20;;;3.80;99.90;;;;;;6236880;28;20300;-72
2021/05/04 05:18:39;;;;;;;4.60;4.10;;;3.90;99.90;;;;;;6238401;28;20314;-72
2021/05/04 05:21:41;;;;;;;4.50;4.10;;;4.00;99.90;;;;;;6211742;28;20292;-72
2021/05/04 05:24:43;;;;;;;5.33;4.60;;;4.00;99.90;;;;;;6212402;28;20645;-72
2021/05/04 05:27:45;;;;;;;5.93;4.77;;;4.10;99.90;;;;;;6210605;28;20318;-72
2021/05/04 05:30:46;;;;;;;5.07;4.07;;;4.10;99.90;;;;;;6211210;28;20244;-72
2021/05/04 05:33:49;;;;;;;4.33;3.93;;;4.20;99.90;;;;;;6209937;28;20282;-72
2021/05/04 05:36:51;;;;;;;4.33;3.93;;;4.30;99.90;;;;;;6210894;28;20240;-72
2021/05/04 05:39:53;;;;;;;4.30;3.90;;;4.30;99.90;;;;;;6213357;28;20232;-72
2021/05/04 05:42:55;;;;;;;4.27;3.70;;;4.40;99.90;;;;;;6210794;28;20315;-72
2021/05/04 05:45:57;;;;;;;3.77;3.47;;;4.40;99.90;;;;;;6210888;28;20252;-72
2021/05/04 05:49:00;;;;;;;3.83;3.50;;;4.50;99.90;;;;;;6216958;28;20239;-72
2021/05/04 05:52:01;;;;;;;4.03;3.63;;;4.50;99.90;;;;;;6260520;28;20239;-72
2021/05/04 05:55:04;;;;;;;4.30;3.73;;;4.60;99.90;;;;;;6260792;28;20231;-72
2021/05/04 05:58:05;;;;;;;4.17;3.70;;;4.70;99.90;;;;;;6260606;28;20701;-72
2021/05/04 06:01:07;;;;;;;3.50;3.20;;;4.70;99.90;;;;;;6260824;28;20768;-72
2021/05/04 06:04:10;;;;;;;4.97;3.27;;;4.80;99.90;;;;;;6259929;28;20315;-72
2021/05/04 06:07:11;;;;;;;5.83;3.27;;;4.90;99.90;;;;;;6259085;28;20238;-72
2021/05/04 06:10:14;;;;;;;3.83;3.23;;;5.00;99.90;;;;;;6243640;28;20283;-72
2021/05/04 06:13:16;;;;;;;3.67;3.37;;;5.10;99.90;;;;;;6233924;28;20232;-72
2021/05/04 06:16:17;;;;;;;4.80;2.97;;;5.20;99.90;;;;;;6235154;28;20244;-72
2021/05/04 06:19:19;;;;;;;3.10;2.80;;;5.30;99.90;;;;;;6240589;28;20289;-72
2021/05/04 06:22:21;;;;;;;2.90;2.60;;;5.40;99.90;;;;;;6260401;28;20743;-72
2021/05/04 06:25:23;;;;;;;2.90;2.70;;;5.60;99.90;;;;;;6260858;28;20648;-72
2021/05/04 06:28:25;;;;;;;5.97;3.37;;;5.70;99.90;;;;;;6260185;28;20249;-72
2021/05/04 06:31:27;;;;;;;2.70;2.50;;;5.80;99.90;;;;;;6261722;28;20285;-72
2021/05/04 06:34:29;;;;;;;2.93;2.63;;;5.90;99.90;;;;;;6259539;28;20362;-72
2021/05/04 06:37:31;;;;;;;3.67;2.30;;;6.10;99.90;;;;;;6257768;28;20998;-72
2021/05/04 06:40:33;;;;;;;2.57;2.27;;;6.40;99.90;;;;;;6256236;28;20237;-72
2021/05/04 06:43:35;;;;;;;2.43;2.10;;;6.60;99.90;;;;;;6235012;28;20231;-72
2021/05/04 06:46:37;;;;;;;2.93;2.00;;;7.00;99.90;;;;;;6232823;28;20323;-72
2021/05/04 06:49:41;;;;;;;2.60;2.10;;;7.30;99.90;;;;;;6242682;28;20231;-72
2021/05/04 06:52:43;;;;;;;2.10;1.97;;;7.60;99.90;;;;;;6258901;28;20401;-72
2021/05/04 06:55:47;;;;;;;1.60;1.50;;;8.00;99.90;;;;;;6258538;28;20233;-72
2021/05/04 06:58:49;;;;;;;1.80;1.70;;;8.50;99.90;;;;;;6258624;28;20707;-72
2021/05/04 07:01:51;;;;;;;3.50;1.43;;;8.90;99.90;;;;;;6256109;28;20265;-72
2021/05/04 07:04:53;;;;;;;1.50;1.33;;;9.40;99.90;;;;;;6257675;28;20219;-73
2021/05/04 07:07:54;;;;;;;1.70;1.30;;;9.80;99.90;;;;;;6257125;28;20392;-73
2021/05/04 07:10:57;;;;;;;1.47;1.10;;;10.30;99.90;;;;;;6235883;28;20230;-72
2021/05/04 07:14:01;;;;;;;1.90;1.07;;;10.70;99.90;;;;;;6248402;28;20228;-72
2021/05/04 07:17:03;;;;;;;1.93;0.80;;;11.10;99.90;;;;;;6230905;28;20259;-72
2021/05/04 07:20:05;;;;;;;1.10;1.00;;;11.50;99.90;;;;;;6245506;28;20239;-72
2021/05/04 07:23:11;;;;;;;3.00;0.90;;;11.90;99.90;;;;;;6257079;28;20232;-72
2021/05/04 07:26:14;;;;;;;1.40;0.90;;;12.40;99.90;;;;;;6242051;28;20601;-72
2021/05/04 07:29:16;;;;;;;1.93;1.10;;;12.80;99.90;;;;;;6231369;28;20254;-72
2021/05/04 07:32:19;;;;;;;0.83;0.70;;;13.20;99.90;;;;;;6247745;28;20269;-72
2021/05/04 07:35:24;;;;;;;0.97;0.97;;;13.60;99.70;;;;;;6232277;28;20234;-72
2021/05/04 07:38:25;;;;;;;2.80;0.90;;;14.00;97.80;;;;;;6231239;28;20274;-73
2021/05/04 07:41:29;;;;;;;2.33;1.20;;;14.40;96.40;;;;;;6232003;28;20640;-73
2021/05/04 07:44:31;;;;;;;3.37;1.23;;;14.80;93.90;;;;;;6231897;28;20317;-74
2021/05/04 07:47:34;;;;;;;2.53;1.60;;;15.30;91.00;;;;;;6231392;28;20606;-73
2021/05/04 07:50:37;;;;;;;1.63;1.20;;;15.70;90.50;;;;;;6245483;28;20238;-73
2021/05/04 07:53:38;;;;;;;2.60;1.10;;;16.00;88.40;;;;;;6254509;28;20239;-74
2021/05/04 07:56:40;;;;;;;1.80;1.10;;;16.30;79.20;;;;;;6252818;28;20257;-73
2021/05/04 07:59:43;;;;;;;2.77;1.27;;;16.60;83.50;;;;;;6246618;28;20319;-73
2021/05/04 08:02:45;;;;;;;1.80;1.37;;;17.00;76.80;;;;;;6231191;28;20338;-73
2021/05/04 08:05:47;;;;;;;1.43;1.03;;;17.30;73.70;;;;;;6245412;28;20240;-73
2021/05/04 08:08:49;;;;;;;1.23;1.13;;;17.70;73.10;;;;;;6231159;28;20350;-73
2021/05/04 08:11:51;;;;;;;1.27;1.17;;;18.10;71.70;;;;;;6231629;28;20311;-73
2021/05/04 08:14:53;;;;;;;0.80;0.80;;;18.50;71.30;;;;;;6230540;28;20369;-73
2021/05/04 08:17:57;;;;;;;0.93;0.90;;;18.80;69.40;;;;;;6230066;28;20228;-73
2021/05/04 08:21:00;;;;;;;1.10;1.00;;;19.10;65.40;;;;;;6232397;28;20224;-73
2021/05/04 08:24:06;;;;;;;0.80;0.80;;;19.30;66.60;;;;;;6230779;28;20689;-73
2021/05/04 08:27:07;;;;;;;2.90;1.50;;;19.60;65.30;;;;;;6229801;28;20323;-74
2021/05/04 08:30:10;;;;;;;4.67;1.40;;;19.80;58.90;;;;;;6231728;28;20316;-73
2021/05/04 08:33:29;;;;;;;4.23;1.30;;;19.90;56.90;;;;;;6231467;28;20216;-74
2021/05/04 08:36:31;;;;;;;1.60;1.30;;;19.90;54.30;;;;;;6230382;28;20309;-74
2021/05/04 08:39:33;;;;;;;2.77;1.13;;;20.00;52.00;;;;;;6231518;28;20259;-73
2021/05/04 08:42:35;;;;;;;3.50;1.30;;;19.90;52.50;;;;;;6230173;28;20652;-73
2021/05/04 08:45:40;;;;;;;2.43;0.97;;;19.90;54.60;;;;;;6212742;28;20231;-73
2021/05/04 08:48:45;;;;;;;2.00;1.37;;;20.30;56.60;;;;;;6228380;28;20232;-73
2021/05/04 08:51:51;;;;;;;2.33;1.40;;;20.40;52.50;;;;;;6230871;28;20235;-73
2021/05/04 08:54:53;;;;;;;1.63;1.53;;;20.30;53.30;;;;;;6230715;28;21223;-75
2021/05/04 08:57:55;;;;;;;1.60;1.50;;;20.30;52.10;;;;;;6230583;28;20727;-73
2021/05/04 09:00:57;;;;;;;1.93;1.70;;;20.50;54.40;;;;;;6231235;28;20715;-73
2021/05/04 09:04:06;;;;;;;4.90;1.80;;;20.80;53.10;;;;;;6231158;28;20238;-73
2021/05/04 09:10:39;;;;;;;2.57;1.63;;;21.00;50.70;;;;;;6211082;28;20359;-74
2021/05/04 09:13:57;;;;;;;2.13;1.97;;;20.50;51.00;;;;;;6206275;28;20290;-73
2021/05/04 09:23:26;;;;;;;2.30;1.50;;;20.80;50.80;;;;;;6254175;28;20309;-74
2021/05/04 09:26:34;;;;;;;2.50;1.70;;;20.80;49.50;;;;;;6255093;28;20239;-73
2021/05/04 09:29:40;;;;;;;1.33;1.20;;;21.10;49.60;;;;;;6254584;28;20223;-73
2021/05/04 09:32:46;;;;;;;1.20;1.10;;;21.30;49.60;;;;;;6253248;28;20599;-74
2021/05/04 09:35:48;;;;;;;1.23;1.10;;;21.70;48.50;;;;;;6252981;28;20277;-74
2021/05/04 09:38:50;;;;;;;2.73;1.30;;;22.20;48.20;;;;;;6252420;28;20227;-74
2021/05/04 09:41:56;;;;;;;3.73;1.23;;;22.40;45.50;;;;;;6253236;28;20230;-74
2021/05/04 09:44:58;;;;;;;1.17;1.03;;;22.40;45.20;;;;;;6256160;28;20726;-74
2021/05/04 09:48:16;;;;;;;1.93;1.00;;;22.60;45.00;;;;;;6255479;28;20243;-73
2021/05/04 09:51:24;;;;;;;1.57;1.30;;;22.80;44.90;;;;;;6256111;28;20803;-73
2021/05/04 09:54:30;;;;;;;1.47;1.37;;;23.10;45.50;;;;;;6259234;28;20227;-74
2021/05/04 09:57:36;;;;;;;1.50;1.20;;;23.20;42.50;;;;;;6258711;28;20301;-73
2021/05/04 10:00:38;;;;;;;0.97;0.97;;;23.20;41.70;;;;;;6259100;28;20242;-73
2021/05/04 10:03:42;;;;;;;1.63;1.23;;;23.00;42.00;;;;;;6259227;28;20305;-75
2021/05/04 10:06:44;;;;;;;3.67;1.40;;;22.60;41.20;;;;;;6258709;28;20320;-73
2021/05/04 10:09:50;;;;;;;1.23;1.13;;;22.50;42.30;;;;;;6245367;28;20223;-73
2021/05/04 10:12:52;;;;;;;1.20;1.10;;;22.70;42.10;;;;;;6240013;28;20771;-73
2021/05/04 10:15:56;;;;;;;1.40;1.13;;;23.00;42.40;;;;;;6239612;28;20639;-74
2021/05/04 10:19:03;;;;;;;1.73;1.20;;;22.80;39.90;;;;;;6235795;28;20258;-73
2021/05/04 10:22:06;;;;;;;1.00;0.90;;;22.60;40.80;;;;;;6258300;28;20258;-74
2021/05/04 10:25:19;;;;;;;1.17;1.07;;;22.60;42.00;;;;;;6260011;28;20317;-73
2021/05/04 10:28:22;;;;;;;1.43;0.97;;;23.00;41.80;;;;;;6259977;28;20238;-73
2021/05/04 10:31:38;;;;;;;2.17;1.30;;;23.50;40.80;;;;;;6255577;28;20239;-74
2021/05/04 10:34:42;;;;;;;2.00;1.10;;;23.70;39.50;;;;;;6258236;28;20231;-74
2021/05/04 10:37:59;;;;;;;1.30;1.07;;;23.70;39.00;;;;;;6257511;28;20269;-73
2021/05/04 10:41:03;;;;;;;2.13;1.20;;;23.50;37.90;;;;;;6252041;28;20281;-74
2021/05/04 10:44:12;;;;;;;1.37;1.13;;;23.30;38.90;;;;;;6248736;28;20236;-73
2021/05/04 10:47:39;;;;;;;2.50;1.40;;;23.50;39.70;;;;;;6235279;28;20244;-73
2021/05/04 10:50:54;;;;;;;1.60;0.97;;;23.80;37.90;;;;;;6247773;28;20241;-73
2021/05/04 10:53:56;;;;;;;3.47;1.17;;;24.10;40.30;;;;;;6258873;28;20243;-74
2021/05/04 10:56:59;;;;;;;2.07;1.40;;;24.40;37.90;;;;;;6256261;28;20250;-73
2021/05/04 11:00:02;;;;;;;3.77;1.10;;;24.10;38.80;;;;;;6256853;28;20357;-74
2021/05/04 11:03:29;;;;;;;1.10;1.00;;;23.90;39.00;;;;;;6257322;28;20223;-73
2021/05/04 11:06:31;;;;;;;1.27;1.17;;;24.00;39.80;;;;;;6257190;28;20268;-73
2021/05/04 11:09:38;;;;;;;1.20;1.10;;;23.90;39.10;;;;;;6246350;28;20227;-74
2021/05/04 11:12:40;;;;;;;1.80;1.63;;;23.90;40.30;;;;;;6234080;28;20227;-72
2021/05/04 11:15:42;;;;;;;1.70;1.00;;;23.70;40.00;;;;;;6233910;28;20220;-73
2021/05/04 11:19:01;;;;;;;1.40;0.93;;;24.10;40.70;;;;;;6232952;28;20227;-73
2021/05/04 11:22:06;;;;;;;1.10;1.10;;;24.70;39.60;;;;;;6258984;28;20232;-73
2021/05/04 11:25:08;;;;;;;1.17;1.07;;;24.80;39.70;;;;;;6249929;28;20327;-73
2021/05/04 11:28:18;;;;;;;1.20;1.00;;;25.30;39.10;;;;;;6245469;28;20240;-73
2021/05/04 11:31:39;;;;;;;2.03;1.08;;;25.70;37.20;;;;;;6232870;28;20327;-74
2021/05/04 11:34:46;;;;;;;1.00;1.00;;;25.80;35.10;;;;;;6232439;28;20246;-74
2021/05/04 11:37:50;;;;;;;1.17;1.08;;;25.50;35.20;;;;;;6231894;28;20239;-74
2021/05/04 11:40:52;;;;;;;2.33;1.15;;;25.70;36.60;;;;;;6214463;28;20370;-73
2021/05/04 11:43:54;;;;;;;1.42;1.00;;;25.90;36.90;;;;;;6232371;28;20230;-73
2021/05/04 11:47:16;;;;;;;2.03;0.90;;;26.00;34.70;;;;;;6232445;28;20238;-73
2021/05/04 11:50:21;;;;;;;3.08;1.17;;;25.90;36.60;;;;;;6245426;28;20246;-74
2021/05/04 11:53:23;;;;;;;1.63;0.93;;;26.00;34.50;;;;;;6238238;28;20307;-74
2021/05/04 11:56:25;;;;;;;1.17;1.00;;;25.70;34.30;;;;;;6255249;28;20695;-73
2021/05/04 11:59:27;;;;;;;3.03;1.00;;;25.50;36.20;;;;;;6249678;28;20276;-74
2021/05/04 12:02:33;;;;;;;2.28;1.00;;;25.80;37.50;;;;;;6230273;28;20236;-73
2021/05/04 12:05:36;;;;;;;1.20;1.08;;;26.50;35.00;;;;;;6230575;28;20232;-73
2021/05/04 12:08:38;;;;;;;1.05;0.95;;;26.10;33.30;;;;;;6231005;28;20310;-73
2021/05/04 12:11:40;;;;;;;1.00;0.90;;;25.90;34.80;;;;;;6230795;28;20234;-73
2021/05/04 12:14:59;;;;;;;1.10;1.00;;;25.90;35.50;;;;;;6231645;28;20310;-73
2021/05/04 12:18:02;;;;;;;1.20;1.10;;;26.10;34.30;;;;;;6231894;28;20239;-74
2021/05/04 12:21:09;;;;;;;2.03;1.25;;;26.50;33.80;;;;;;6249962;28;20234;-73
2021/05/04 12:24:11;;;;;;;1.15;1.05;;;26.60;33.50;;;;;;6254087;28;20195;-73
2021/05/04 12:27:14;;;;;;;1.65;1.08;;;26.50;33.00;;;;;;6254809;28;20654;-73
2021/05/04 12:30:24;;;;;;;4.63;1.00;;;26.90;33.70;;;;;;6257462;28;20321;-74
2021/05/04 12:33:26;;;;;;;4.00;1.27;;;27.00;33.00;;;;;;6253996;28;20301;-74
2021/05/04 12:36:48;;;;;;;1.30;1.13;;;26.80;33.40;;;;;;6254501;28;20708;-74
2021/05/04 12:39:50;;;;;;;6.00;1.00;;;26.80;32.80;;;;;;6255675;28;20235;-74
2021/05/04 12:43:12;;;;;;;3.33;1.10;;;26.90;33.10;;;;;;6254043;28;20234;-73
2021/05/04 12:46:19;;;;;;;1.38;1.08;;;26.90;32.90;;;;;;6254961;28;20239;-73
2021/05/04 12:49:36;;;;;;;1.48;1.00;;;27.20;32.70;;;;;;6253556;28;20233;-73
2021/05/04 12:52:38;;;;;;;1.30;0.88;;;27.30;31.70;;;;;;6255236;28;20227;-73
2021/05/04 12:55:58;;;;;;;2.97;1.00;;;27.10;31.60;;;;;;6253643;28;20226;-74
2021/05/04 12:59:05;;;;;;;2.20;1.10;;;27.10;32.10;;;;;;6253169;28;20238;-74
2021/05/04 13:02:07;;;;;;;1.35;0.80;;;27.10;30.90;;;;;;6255117;28;20223;-74
2021/05/04 13:05:23;;;;;;;2.20;1.20;;;27.10;33.10;;;;;;6255493;28;20230;-74
2021/05/04 13:08:25;;;;;;;1.13;1.00;;;27.20;32.20;;;;;;6255157;28;20239;-73
2021/05/04 13:11:57;;;;;;;2.15;0.80;;;27.20;31.70;;;;;;6232352;28;20236;-74
2021/05/04 13:32:21;;;;;;;4.78;1.15;;;28.60;30.00;;;;;;6235903;28;20685;-73
2021/05/04 13:35:24;;;;;;;1.75;1.00;;;28.60;30.30;;;;;;6234595;28;20228;-73
2021/05/04 13:48:25;;;;;;;1.50;1.08;;;29.10;29.60;;;;;;6233901;28;20582;-73
2021/05/04 13:51:27;;;;;;;4.22;1.17;;;29.40;29.50;;;;;;6255625;28;20227;-74
2021/05/04 13:54:29;;;;;;;1.13;0.93;;;29.20;28.80;;;;;;6258092;28;20314;-73
2021/05/04 13:57:33;;;;;;;4.55;1.10;;;29.10;29.50;;;;;;6258053;28;20681;-74
2021/05/04 14:04:36;;;;;;;1.42;1.10;;;29.00;30.20;;;;;;6230795;28;20319;-73
2021/05/04 14:27:35;;;;;;;1.25;0.95;;;27.80;29.90;;;;;;6181790;28;20347;-73
2021/05/04 14:30:38;;;;;;;1.23;0.75;;;27.60;29.90;;;;;;6182736;28;20248;-73
2021/05/04 14:33:40;;;;;;;0.93;0.90;;;27.80;30.10;;;;;;6186148;28;20236;-73
2021/05/04 14:37:27;;;;;;;1.13;0.90;;;27.80;30.10;;;;;;6209411;28;20247;-71
2021/05/04 14:43:31;;;;;;;1.55;0.90;;;27.80;30.80;;;;;;6230578;28;20576;-72
2021/05/04 14:46:53;;;;;;;2.65;0.90;;;27.90;30.50;;;;;;6231599;28;20283;-72
2021/05/04 14:59:47;;;;;;;1.05;1.00;;;28.90;31.80;;;;;;6255619;28;20238;-72
2021/05/04 15:02:50;;;;;;;1.25;1.00;;;28.80;30.70;;;;;;6256637;28;20235;-73
2021/05/04 15:05:52;;;;;;;1.63;1.15;;;28.00;30.00;;;;;;6257154;28;20226;-71
2021/05/04 15:08:54;;;;;;;1.77;0.90;;;27.40;30.80;;;;;;6252046;28;20340;-72
2021/05/04 15:11:56;;;;;;;0.80;0.80;;;27.00;31.00;;;;;;6231780;28;20708;-72
2021/05/04 15:15:00;;;;;;;1.10;0.85;;;26.40;31.30;;;;;;6233166;28;20224;-72
2021/05/04 15:24:26;;;;;;;0.90;0.90;;;25.20;31.50;;;;;;6256362;28;20306;-71
2021/05/04 15:27:27;;;;;;;3.50;0.80;;;25.10;31.60;;;;;;6240121;28;20250;-72
2021/05/04 15:30:29;;;;;;;0.90;0.77;;;25.00;32.00;;;;;;6255585;28;20688;-72
2021/05/04 15:33:33;;;;;;;1.50;0.90;;;25.40;32.00;;;;;;6256848;28;20238;-72
2021/05/04 15:36:36;;;;;;;1.60;1.00;;;26.20;32.80;;;;;;6239495;28;20219;-71
2021/05/04 15:39:38;;;;;;;1.13;0.87;;;26.90;31.10;;;;;;6255012;28;20305;-72
2021/05/04 15:42:40;;;;;;;1.17;0.80;;;27.40;30.30;;;;;;6237167;28;20258;-72
2021/05/04 15:48:56;;;;;;;0.90;0.75;;;27.50;30.10;;;;;;6233727;28;20239;-72
2021/05/04 16:08:01;;;;;;;1.03;0.93;;;27.00;30.50;;;;;;6229729;28;20784;-74
2021/05/04 16:11:03;;;;;;;1.27;1.17;;;26.00;31.70;;;;;;6232346;28;20238;-74
2021/05/04 16:14:05;;;;;;;1.23;1.10;;;25.10;33.00;;;;;;6231927;28;20715;-75
2021/05/04 16:17:07;;;;;;;2.47;1.00;;;24.40;34.10;;;;;;6205951;28;20247;-74
2021/05/04 16:23:45;;;;;;;2.13;1.13;;;23.40;35.10;;;;;;6213791;28;20592;-74
2021/05/04 16:27:00;;;;;;;1.97;0.80;;;23.10;36.20;;;;;;6228933;28;20224;-76
2021/05/04 16:30:08;;;;;;;2.50;1.20;;;22.90;36.50;;;;;;6226754;28;20362;-74
2021/05/04 16:33:09;;;;;;;1.57;0.93;;;22.60;36.90;;;;;;6228462;28;20644;-75
2021/05/04 16:36:12;;;;;;;0.77;0.77;;;22.20;37.10;;;;;;6229619;28;20216;-74
2021/05/04 16:39:14;;;;;;;2.40;1.13;;;21.90;37.80;;;;;;6226174;28;20200;-73
2021/05/04 16:42:16;;;;;;;2.87;0.90;;;21.70;38.30;;;;;;6228799;28;20220;-72
2021/05/04 16:45:20;;;;;;;1.47;1.00;;;21.50;39.40;;;;;;6232766;28;20227;-73
2021/05/04 16:48:22;;;;;;;1.60;0.90;;;21.30;39.60;;;;;;6234896;28;20705;-73
2021/05/04 16:51:24;;;;;;;2.00;1.27;;;21.10;40.10;;;;;;6253055;28;20231;-73
2021/05/04 16:54:26;;;;;;;2.30;0.90;;;20.80;40.40;;;;;;6254056;28;20595;-74
2021/05/04 16:57:28;;;;;;;2.97;1.17;;;20.60;40.90;;;;;;6261704;28;20260;-72
2021/05/04 17:00:30;;;;;;;4.37;1.20;;;20.50;41.30;;;;;;6263712;28;20280;-72
2021/05/04 17:03:35;;;;;;;2.80;1.10;;;20.40;42.00;;;;;;6262807;28;20276;-73
2021/05/04 17:06:51;;;;;;;1.90;1.10;;;20.30;42.80;;;;;;6258397;28;20230;-73
2021/05/04 17:10:17;;;;;;;3.60;1.10;;;20.20;43.20;;;;;;6246536;28;20224;-73
2021/05/04 17:13:15;;;;;;;3.43;1.07;;;20.00;43.70;;;;;;6236484;28;20842;-72
2021/05/04 17:16:17;;;;;;;2.43;0.90;;;19.90;43.70;;;;;;6235661;28;20700;-73
2021/05/04 17:19:21;;;;;;;1.20;1.10;;;19.70;44.70;;;;;;6241678;28;20226;-73
2021/05/04 17:22:23;;;;;;;0.80;0.80;;;19.60;45.50;;;;;;6260120;28;20246;-73
2021/05/04 17:25:32;;;;;;;1.20;1.10;;;19.40;46.10;;;;;;6259720;28;20241;-73
2021/05/04 17:28:34;;;;;;;1.53;1.17;;;19.20;47.30;;;;;;6257766;28;20250;-70
2021/05/04 17:31:36;;;;;;;2.17;0.90;;;19.00;47.50;;;;;;6259313;28;20719;-70
2021/05/04 17:34:38;;;;;;;1.37;1.10;;;18.80;48.00;;;;;;6257240;28;20242;-70
2021/05/04 17:37:40;;;;;;;2.90;1.20;;;18.60;48.60;;;;;;6259427;28;20234;-71
2021/05/04 17:40:41;;;;;;;1.07;0.97;;;18.40;48.50;;;;;;6259464;28;20716;-71
2021/05/04 17:43:43;;;;;;;3.90;1.23;;;18.30;49.40;;;;;;6260672;28;20238;-71
2021/05/04 17:46:45;;;;;;;2.27;1.10;;;18.10;50.10;;;;;;6258526;28;20312;-71